Time;durP1;ratioP1;P1;durP2;ratioP2;P2;SDS_P1;SDS_P2;PMS_P1;PMS_P2;Temp;Humidity;BMP_temperature;BMP_pressure;BME280_temperature;BME280_humidity;BME280_pressure;Samples;Min_cycle;Max_cycle;Signal;HPM_P1;HPM_P2
2022/06/02 00:03:18;;;;;;;3.05;2.33;;;23.70;52.70;;;;;;7683478;23;20092;-72
2022/06/02 00:06:43;;;;;;;8.45;2.75;;;23.70;53.10;;;;;;7708788;23;20040;-71
2022/06/02 00:10:06;;;;;;;10.23;2.95;;;23.60;53.10;;;;;;7733464;23;20036;-71
2022/06/02 00:13:26;;;;;;;4.50;3.10;;;23.60;53.10;;;;;;7709790;23;20023;-71
2022/06/02 00:16:53;;;;;;;4.80;2.85;;;23.50;53.20;;;;;;7709392;22;20100;-72
2022/06/02 00:20:08;;;;;;;6.60;3.03;;;23.50;53.20;;;;;;7733546;23;20091;-71
2022/06/02 00:23:42;;;;;;;4.10;2.80;;;23.40;53.20;;;;;;7709513;23;20020;-72
2022/06/02 00:26:52;;;;;;;4.53;2.95;;;23.40;53.30;;;;;;7707941;23;20016;-71
2022/06/02 00:30:03;;;;;;;6.50;3.28;;;23.40;53.20;;;;;;7708910;23;20475;-72
2022/06/02 00:33:39;;;;;;;6.90;3.38;;;23.40;53.30;;;;;;7682527;23;20419;-72
2022/06/02 00:37:00;;;;;;;5.70;3.40;;;23.40;53.50;;;;;;7684648;23;20442;-71
2022/06/02 00:40:03;;;;;;;9.13;3.08;;;23.40;53.50;;;;;;7685220;23;20016;-72
2022/06/02 00:43:43;;;;;;;10.27;3.83;;;23.40;53.60;;;;;;7711362;23;20347;-71
2022/06/02 00:46:47;;;;;;;;;;;23.40;53.70;;;;;;7682726;23;20583;-71
2022/06/02 00:50:09;;;;;;;5.78;3.17;;;23.40;53.50;;;;;;7709327;23;19982;-71
2022/06/02 00:53:32;;;;;;;7.80;3.10;;;23.40;53.60;;;;;;7707442;23;20111;-71
2022/06/02 01:00:38;;;;;;;7.18;3.58;;;23.40;53.90;;;;;;7570575;23;20089;-71
2022/06/02 01:03:46;;;;;;;7.40;3.00;;;23.40;54.00;;;;;;7581522;23;20102;-71
2022/06/02 01:07:07;;;;;;;5.47;3.17;;;23.30;54.20;;;;;;7595773;23;20018;-72
2022/06/02 01:10:27;;;;;;;4.63;3.05;;;23.30;54.50;;;;;;7596468;23;20018;-72
2022/06/02 01:13:48;;;;;;;9.38;3.10;;;23.20;54.70;;;;;;7570934;23;20327;-71
2022/06/02 01:17:08;;;;;;;6.38;2.97;;;23.20;54.90;;;;;;7570251;23;20050;-72
2022/06/02 01:20:13;;;;;;;6.82;3.65;;;23.10;55.20;;;;;;7595422;23;20033;-72
2022/06/02 01:23:21;;;;;;;4.57;3.45;;;23.00;55.50;;;;;;7570675;23;20430;-72
2022/06/02 01:26:47;;;;;;;9.23;3.22;;;23.00;55.70;;;;;;7573039;23;20018;-73
2022/06/02 01:30:14;;;;;;;9.93;3.40;;;22.90;55.90;;;;;;7570279;23;20101;-72
2022/06/02 01:33:36;;;;;;;13.90;3.75;;;22.80;56.20;;;;;;7567806;23;20024;-72
2022/06/02 01:37:01;;;;;;;9.93;3.90;;;22.80;56.30;;;;;;7649620;23;20088;-71
2022/06/02 01:40:17;;;;;;;7.45;4.03;;;22.70;56.60;;;;;;7708946;23;20019;-71
2022/06/02 01:43:54;;;;;;;8.18;3.70;;;22.70;56.70;;;;;;7709299;23;20090;-72
2022/06/02 01:47:24;;;;;;;6.18;3.72;;;22.60;56.70;;;;;;7570253;23;20110;-71
2022/06/02 01:50:38;;;;;;;6.78;2.97;;;22.60;56.70;;;;;;7570060;23;20026;-72
2022/06/02 01:53:51;;;;;;;7.88;3.30;;;22.60;56.70;;;;;;7571448;23;20022;-72
2022/06/02 01:57:24;;;;;;;5.88;3.25;;;22.60;56.70;;;;;;7593411;23;20024;-71
2022/06/02 02:00:30;;;;;;;3.47;2.97;;;22.60;56.70;;;;;;7556683;23;20033;-72
2022/06/02 02:03:52;;;;;;;3.85;2.70;;;22.50;56.70;;;;;;7596808;23;20373;-71
2022/06/02 02:07:01;;;;;;;6.97;3.00;;;22.50;56.80;;;;;;7572799;23;20330;-71
2022/06/02 02:10:38;;;;;;;7.15;3.00;;;22.50;56.80;;;;;;7596498;23;20013;-70
2022/06/02 02:14:19;;;;;;;7.72;5.05;;;22.50;56.80;;;;;;7486675;23;20439;-72
2022/06/02 02:17:35;;;;;;;18.55;8.05;;;22.50;56.70;;;;;;7393552;23;20690;-71
2022/06/02 02:20:50;;;;;;;15.18;6.95;;;22.40;56.50;;;;;;7395661;23;20109;-71
2022/06/02 02:24:00;;;;;;;16.05;6.22;;;22.50;56.50;;;;;;7438561;23;20034;-71
2022/06/02 02:27:19;;;;;;;10.25;5.88;;;22.50;56.40;;;;;;7475595;23;20103;-71
2022/06/02 02:30:23;;;;;;;11.60;5.53;;;22.40;56.40;;;;;;7473906;23;20292;-71
2022/06/02 02:34:01;;;;;;;9.18;5.03;;;22.50;56.40;;;;;;7452086;23;20422;-71
2022/06/02 02:37:11;;;;;;;10.18;4.70;;;22.50;56.60;;;;;;7449579;23;20030;-71
2022/06/02 02:40:21;;;;;;;9.07;4.38;;;22.50;56.70;;;;;;7449931;23;20020;-70
2022/06/02 02:43:31;;;;;;;6.90;3.10;;;22.50;56.70;;;;;;7473401;23;20088;-70
2022/06/02 02:46:44;;;;;;;5.38;3.33;;;22.50;56.60;;;;;;7427308;23;20091;-70
2022/06/02 02:49:52;;;;;;;4.55;3.10;;;22.60;56.60;;;;;;7484257;23;20054;-71
2022/06/02 02:53:05;;;;;;;4.47;3.00;;;22.60;56.40;;;;;;7614586;23;20024;-71
2022/06/02 02:56:39;;;;;;;4.85;3.15;;;22.60;56.30;;;;;;7704178;23;20089;-71
2022/06/02 03:00:03;;;;;;;4.97;3.30;;;22.70;56.40;;;;;;7532120;23;20018;-71
2022/06/02 03:03:15;;;;;;;7.35;3.35;;;22.70;56.30;;;;;;7544902;23;20048;-72
2022/06/02 03:06:30;;;;;;;10.15;3.05;;;22.70;56.20;;;;;;7583141;23;20018;-70
2022/06/02 03:09:39;;;;;;;7.00;3.30;;;22.70;56.10;;;;;;7558299;23;20345;-71
2022/06/02 03:12:56;;;;;;;6.88;2.83;;;22.70;56.00;;;;;;7557950;23;20654;-71
2022/06/02 03:16:05;;;;;;;15.65;3.55;;;22.70;55.90;;;;;;7582735;23;20018;-72
2022/06/02 03:19:21;;;;;;;5.55;3.50;;;22.70;55.80;;;;;;7558455;23;20045;-71
2022/06/02 03:22:29;;;;;;;5.95;3.50;;;22.70;55.70;;;;;;7582348;23;20030;-71
2022/06/02 03:25:45;;;;;;;5.17;3.37;;;22.70;55.60;;;;;;7582857;23;20010;-71
2022/06/02 03:29:07;;;;;;;7.53;2.95;;;22.70;55.60;;;;;;7558296;23;20419;-71
2022/06/02 03:32:11;;;;;;;8.13;2.97;;;22.70;55.60;;;;;;7582161;23;20138;-70
2022/06/02 03:35:24;;;;;;;6.70;3.72;;;22.60;55.50;;;;;;7609575;23;20375;-71
2022/06/02 03:38:41;;;;;;;4.50;3.25;;;22.60;55.50;;;;;;7684916;23;20028;-71
2022/06/02 03:42:12;;;;;;;7.35;3.20;;;22.60;55.70;;;;;;7681591;23;20016;-71
2022/06/02 03:45:16;;;;;;;5.70;3.15;;;22.60;55.80;;;;;;7707504;23;20023;-72
2022/06/02 03:48:46;;;;;;;4.97;3.03;;;22.50;55.80;;;;;;7682561;23;20013;-70
2022/06/02 03:52:16;;;;;;;7.05;3.17;;;22.50;55.90;;;;;;7681738;23;20043;-72
2022/06/02 03:55:51;;;;;;;6.55;2.95;;;22.50;56.10;;;;;;7699809;23;20027;-71
2022/06/02 03:59:05;;;;;;;7.07;3.00;;;22.50;56.00;;;;;;7707070;23;20013;-71
2022/06/02 04:02:09;;;;;;;11.98;3.70;;;22.50;55.90;;;;;;7732583;23;20023;-71
2022/06/02 04:05:47;;;;;;;9.23;2.85;;;22.60;55.90;;;;;;7707978;23;20490;-71
2022/06/02 04:08:55;;;;;;;5.68;3.33;;;22.60;55.90;;;;;;7707580;23;20024;-71
2022/06/02 04:15:47;;;;;;;6.00;2.95;;;22.40;56.60;;;;;;7682380;23;20005;-71
2022/06/02 04:23:06;;;;;;;8.55;3.10;;;22.40;57.10;;;;;;7732617;23;20018;-70
2022/06/02 04:26:31;;;;;;;17.52;3.40;;;22.40;57.30;;;;;;7726491;23;20008;-71
2022/06/02 04:29:47;;;;;;;5.15;3.15;;;22.40;57.50;;;;;;7693191;23;20012;-71
2022/06/02 04:32:59;;;;;;;8.20;3.55;;;22.30;57.70;;;;;;7707998;23;20027;-71
2022/06/02 04:36:19;;;;;;;5.95;3.45;;;22.40;58.00;;;;;;7733518;23;20122;-71
2022/06/02 04:39:37;;;;;;;3.58;2.75;;;22.30;58.30;;;;;;7732651;23;20024;-71
2022/06/02 04:42:55;;;;;;;10.15;3.03;;;22.30;58.50;;;;;;7682684;23;20016;-71
2022/06/02 04:46:22;;;;;;;5.18;3.88;;;22.30;58.70;;;;;;7682450;23;20015;-71
2022/06/02 04:49:38;;;;;;;5.90;3.53;;;22.20;58.90;;;;;;7683225;23;20096;-71
2022/06/02 04:52:48;;;;;;;6.57;3.40;;;22.30;59.30;;;;;;7708800;23;20371;-71
2022/06/02 04:56:06;;;;;;;5.03;3.45;;;22.20;59.40;;;;;;7709285;23;20012;-70
2022/06/02 04:59:43;;;;;;;5.65;3.22;;;22.20;59.60;;;;;;7707875;23;20021;-70
2022/06/02 05:02:56;;;;;;;17.95;3.58;;;22.10;59.80;;;;;;7708227;23;20021;-70
2022/06/02 05:06:18;;;;;;;5.78;3.45;;;22.20;59.80;;;;;;7732642;23;20379;-71
2022/06/02 05:09:47;;;;;;;8.05;3.28;;;22.20;59.70;;;;;;7707824;23;20017;-71
2022/06/02 05:13:14;;;;;;;7.45;3.47;;;22.20;59.50;;;;;;7706049;23;20018;-71
2022/06/02 05:16:33;;;;;;;8.25;3.30;;;22.30;59.50;;;;;;7664195;23;20028;-71
2022/06/02 05:20:11;;;;;;;8.50;3.72;;;22.30;59.40;;;;;;7733212;23;20013;-71
2022/06/02 05:23:49;;;;;;;4.25;3.30;;;22.30;59.40;;;;;;7706169;23;20023;-72
2022/06/02 05:27:05;;;;;;;4.25;2.92;;;22.20;59.40;;;;;;7704957;23;20016;-70
2022/06/02 05:30:18;;;;;;;18.90;6.50;;;22.30;59.40;;;;;;7730155;23;20439;-71
2022/06/02 05:33:51;;;;;;;10.82;3.70;;;22.30;59.30;;;;;;7730309;23;20017;-71
2022/06/02 05:37:08;;;;;;;16.48;4.03;;;22.30;59.60;;;;;;7521547;23;20437;-71
2022/06/02 05:40:22;;;;;;;6.35;3.25;;;22.20;60.00;;;;;;7496901;23;20010;-71
2022/06/02 05:43:43;;;;;;;10.18;3.20;;;22.10;60.70;;;;;;7522222;23;20027;-70
2022/06/02 05:47:15;;;;;;;8.40;3.53;;;22.10;61.10;;;;;;7496504;23;20067;-71
2022/06/02 05:50:30;;;;;;;8.35;3.45;;;22.00;61.50;;;;;;7521457;23;20051;-71
2022/06/02 05:54:11;;;;;;;9.02;3.95;;;22.00;61.80;;;;;;7490608;23;20031;-71
2022/06/02 05:57:28;;;;;;;8.77;3.63;;;22.00;62.10;;;;;;7463498;23;20034;-71
2022/06/02 06:00:57;;;;;;;4.80;3.72;;;22.00;62.10;;;;;;7502653;23;20291;-72
2022/06/02 06:04:49;;;;;;;10.90;4.05;;;22.10;62.30;;;;;;7497015;23;20047;-71
2022/06/02 06:08:15;;;;;;;8.55;4.43;;;22.10;62.70;;;;;;7346171;24;20021;-71
2022/06/02 06:11:49;;;;;;;5.88;3.60;;;22.10;63.40;;;;;;7397103;23;20083;-71
2022/06/02 06:15:12;;;;;;;10.23;4.07;;;22.10;63.70;;;;;;7485269;23;20031;-70
2022/06/02 06:18:39;;;;;;;6.40;3.67;;;22.10;63.70;;;;;;7511054;23;20023;-70
2022/06/02 06:22:03;;;;;;;6.00;3.92;;;22.20;63.50;;;;;;7494966;23;20074;-71
2022/06/02 06:25:07;;;;;;;6.57;4.05;;;22.40;63.00;;;;;;7486247;23;20334;-71
2022/06/02 06:28:14;;;;;;;7.60;4.00;;;22.60;62.30;;;;;;7487082;23;20019;-71
2022/06/02 06:31:51;;;;;;;11.93;3.78;;;22.80;62.00;;;;;;7510555;23;20019;-74
2022/06/02 06:35:00;;;;;;;5.78;2.78;;;23.00;61.40;;;;;;7486823;23;20054;-72
2022/06/02 06:38:32;;;;;;;9.10;3.70;;;23.20;60.20;;;;;;7487080;23;20058;-72
2022/06/02 06:42:07;;;;;;;9.73;3.33;;;23.30;59.60;;;;;;7484797;23;20113;-71
2022/06/02 06:45:18;;;;;;;7.50;3.40;;;23.50;59.40;;;;;;7608914;23;20023;-71
2022/06/02 06:48:24;;;;;;;6.38;3.17;;;23.70;58.60;;;;;;7670119;23;20020;-73
2022/06/02 06:51:49;;;;;;;7.13;3.20;;;23.80;58.10;;;;;;7670904;23;20096;-72
2022/06/02 06:55:44;;;;;;;7.40;3.67;;;23.80;57.80;;;;;;7669974;23;20045;-75
2022/06/02 06:58:51;;;;;;;7.28;3.80;;;23.90;57.90;;;;;;7459828;23;20046;-72
2022/06/02 07:02:15;;;;;;;5.63;3.08;;;24.00;57.70;;;;;;7461037;23;20019;-71
2022/06/02 07:05:37;;;;;;;6.70;3.08;;;24.20;57.60;;;;;;7470840;23;20023;-72
2022/06/02 07:09:05;;;;;;;15.43;3.47;;;24.50;56.80;;;;;;7486211;23;20019;-72
2022/06/02 07:12:50;;;;;;;4.07;3.00;;;24.90;55.90;;;;;;7485756;23;20033;-73
2022/06/02 07:16:03;;;;;;;10.93;3.15;;;25.20;55.00;;;;;;7347580;24;20343;-71
2022/06/02 07:19:13;;;;;;;6.88;3.28;;;25.40;54.50;;;;;;7348489;24;20025;-71
2022/06/02 07:22:43;;;;;;;10.40;3.42;;;25.60;54.20;;;;;;7350775;24;20021;-70
2022/06/02 07:26:19;;;;;;;8.55;3.58;;;25.50;54.30;;;;;;7348953;24;20014;-72
2022/06/02 07:29:39;;;;;;;9.18;3.45;;;25.50;54.30;;;;;;7348426;24;20017;-71
2022/06/02 07:32:48;;;;;;;18.70;4.13;;;25.50;54.20;;;;;;7427806;23;20122;-71
2022/06/02 07:36:08;;;;;;;7.03;3.90;;;25.50;54.20;;;;;;7511489;23;20023;-72
2022/06/02 07:39:11;;;;;;;7.65;3.53;;;25.50;54.20;;;;;;7487079;23;20023;-71
2022/06/02 07:42:18;;;;;;;9.57;3.25;;;25.70;54.20;;;;;;7487476;23;20026;-71
2022/06/02 07:45:32;;;;;;;8.93;2.80;;;25.80;53.90;;;;;;7487881;23;20094;-72
2022/06/02 07:48:55;;;;;;;11.90;3.28;;;25.90;53.70;;;;;;7553940;23;20022;-73
2022/06/02 07:52:14;;;;;;;20.88;4.18;;;25.90;53.30;;;;;;7733924;23;20435;-73
2022/06/02 07:55:24;;;;;;;6.70;2.80;;;25.80;53.30;;;;;;7709510;23;20021;-72
2022/06/02 07:58:44;;;;;;;11.50;3.47;;;25.80;53.30;;;;;;7683986;23;20392;-72
2022/06/02 08:01:53;;;;;;;13.00;3.88;;;25.70;53.10;;;;;;7681924;23;20043;-72
2022/06/02 08:04:58;;;;;;;8.50;3.22;;;25.70;52.90;;;;;;7731999;23;20028;-71
2022/06/02 08:08:21;;;;;;;4.40;2.90;;;25.80;52.60;;;;;;7708306;23;20474;-71
2022/06/02 08:11:41;;;;;;;7.25;3.05;;;25.80;52.30;;;;;;7665152;23;20107;-72
2022/06/02 08:15:17;;;;;;;4.32;2.72;;;25.90;52.10;;;;;;7707617;23;20024;-71
2022/06/02 08:18:26;;;;;;;7.88;2.85;;;26.00;51.70;;;;;;7708254;23;20424;-72
2022/06/02 08:22:02;;;;;;;4.00;2.40;;;26.10;51.30;;;;;;7708393;23;20069;-72
2022/06/02 08:25:09;;;;;;;7.50;2.95;;;26.20;51.30;;;;;;7557575;23;20355;-72
2022/06/02 08:28:51;;;;;;;13.53;3.37;;;26.20;51.40;;;;;;7558435;23;20097;-72
2022/06/02 08:32:10;;;;;;;13.57;3.80;;;26.10;51.50;;;;;;7485573;23;20240;-71
2022/06/02 08:35:20;;;;;;;7.55;2.80;;;26.10;51.60;;;;;;7462134;23;20019;-71
2022/06/02 08:38:50;;;;;;;6.97;2.85;;;26.10;51.70;;;;;;7485448;23;20019;-72
2022/06/02 08:41:56;;;;;;;11.00;2.88;;;26.10;51.60;;;;;;7416191;23;20472;-72
2022/06/02 08:45:34;;;;;;;7.70;2.80;;;26.10;51.30;;;;;;7417255;23;20030;-71
2022/06/02 08:48:55;;;;;;;9.85;3.15;;;26.20;51.40;;;;;;7416059;23;20016;-72
2022/06/02 08:52:08;;;;;;;7.50;2.53;;;26.30;51.10;;;;;;7383244;24;20509;-71
2022/06/02 08:55:44;;;;;;;12.60;3.00;;;26.50;50.90;;;;;;7360227;24;20469;-72
2022/06/02 08:59:08;;;;;;;9.50;4.47;;;26.60;50.80;;;;;;7359746;24;20358;-71
2022/06/02 09:03:02;;;;;;;6.82;3.72;;;26.80;50.40;;;;;;7314497;24;20473;-72
2022/06/02 09:06:40;;;;;;;6.80;3.10;;;27.00;49.90;;;;;;7300594;24;20092;-71
2022/06/02 09:10:26;;;;;;;10.75;3.20;;;27.20;49.70;;;;;;7378809;24;20283;-71
2022/06/02 09:14:05;;;;;;;4.78;2.75;;;27.40;49.40;;;;;;7320005;24;20504;-72
2022/06/02 09:17:48;;;;;;;6.50;3.38;;;27.60;49.20;;;;;;7312736;24;20025;-72
2022/06/02 09:20:59;;;;;;;5.00;3.10;;;27.70;49.00;;;;;;7277135;24;20014;-72
2022/06/02 09:24:26;;;;;;;4.70;2.58;;;27.80;48.80;;;;;;7281013;24;20026;-72
2022/06/02 09:27:46;;;;;;;4.78;2.38;;;27.90;48.40;;;;;;7280586;24;20024;-72
2022/06/02 09:31:02;;;;;;;3.78;2.15;;;28.00;48.10;;;;;;7280881;24;20022;-72
2022/06/02 09:34:02;;;;;;;5.25;2.28;;;28.00;47.70;;;;;;7280162;24;20053;-71
2022/06/02 09:37:21;;;;;;;10.00;2.97;;;28.00;47.60;;;;;;7281453;24;20025;-71
2022/06/02 09:40:38;;;;;;;;;;;28.00;47.30;;;;;;7480312;23;20042;-72
2022/06/02 09:43:53;;;;;;;3.47;2.47;;;28.20;46.80;;;;;;7521234;23;19989;-72
2022/06/02 09:47:18;;;;;;;13.93;7.00;;;28.40;46.00;;;;;;7520962;23;20025;-71
2022/06/02 09:50:47;;;;;;;18.63;8.25;;;28.50;45.60;;;;;;7540877;23;20030;-71
2022/06/02 09:54:02;;;;;;;12.43;6.22;;;28.70;44.80;;;;;;7613370;23;20098;-72
2022/06/02 10:01:25;;;;;;;5.78;3.10;;;28.70;44.20;;;;;;7667184;23;20013;-71
2022/06/02 10:04:38;;;;;;;12.00;3.80;;;28.80;44.30;;;;;;7402088;23;20024;-72
2022/06/02 10:07:50;;;;;;;15.43;7.82;;;28.90;43.70;;;;;;7426503;23;20102;-72
2022/06/02 10:11:13;;;;;;;10.50;5.00;;;29.00;43.70;;;;;;7449848;23;20027;-71
2022/06/02 10:14:40;;;;;;;7.97;4.22;;;29.10;44.00;;;;;;7424754;23;20046;-72
2022/06/02 10:18:01;;;;;;;31.30;13.75;;;29.20;43.90;;;;;;7425325;23;20011;-73
2022/06/02 10:21:43;;;;;;;9.45;4.95;;;29.20;43.90;;;;;;7426292;23;20020;-72
2022/06/02 10:24:44;;;;;;;7.32;4.10;;;29.30;43.70;;;;;;7423522;23;20120;-71
2022/06/02 10:28:19;;;;;;;14.82;4.78;;;29.40;43.80;;;;;;7424194;23;20016;-71
2022/06/02 10:31:42;;;;;;;20.50;9.30;;;29.40;43.70;;;;;;7263644;24;20022;-72
2022/06/02 10:35:28;;;;;;;7.65;4.10;;;29.40;43.50;;;;;;7310529;24;20021;-72
2022/06/02 10:39:08;;;;;;;13.63;6.05;;;29.40;43.30;;;;;;7288350;24;20411;-71
2022/06/02 10:42:35;;;;;;;8.93;4.05;;;29.50;43.30;;;;;;7278076;24;20082;-71
2022/06/02 10:46:08;;;;;;;9.30;3.75;;;29.60;42.80;;;;;;7311644;24;20025;-71
2022/06/02 10:49:15;;;;;;;5.93;2.22;;;29.50;42.10;;;;;;7318978;24;20021;-72
2022/06/02 10:52:44;;;;;;;12.83;7.43;;;29.50;42.30;;;;;;7367738;23;20062;-73
2022/06/02 10:56:18;;;;;;;9.82;4.45;;;29.60;42.30;;;;;;7347020;24;20093;-71
2022/06/02 10:59:43;;;;;;;10.52;5.90;;;29.60;42.30;;;;;;7370323;23;20422;-72
2022/06/02 11:02:44;;;;;;;12.10;3.17;;;29.70;41.80;;;;;;7367024;23;20040;-73
2022/06/02 11:06:22;;;;;;;8.25;5.35;;;30.10;41.30;;;;;;7346066;24;20310;-72
2022/06/02 11:10:11;;;;;;;3.08;2.15;;;30.60;39.60;;;;;;7472133;23;20420;-72
2022/06/02 11:13:24;;;;;;;8.55;2.63;;;30.80;39.20;;;;;;7379481;24;20068;-71
2022/06/02 11:16:33;;;;;;;5.35;2.08;;;30.90;38.80;;;;;;7399738;23;20026;-71
2022/06/02 11:19:53;;;;;;;8.82;2.33;;;31.00;38.70;;;;;;7520702;23;20188;-72
2022/06/02 11:23:30;;;;;;;2.33;1.80;;;31.40;37.90;;;;;;7521295;23;20054;-71
2022/06/02 11:27:18;;;;;;;4.72;1.55;;;31.90;37.40;;;;;;7518947;23;20173;-72
2022/06/02 11:30:25;;;;;;;6.70;3.72;;;32.60;35.20;;;;;;7379691;24;20033;-72
2022/06/02 11:33:41;;;;;;;17.33;7.23;;;33.10;34.00;;;;;;7381689;24;20051;-72
2022/06/02 11:37:16;;;;;;;8.93;4.72;;;33.00;33.70;;;;;;7381012;24;20027;-72
2022/06/02 11:40:37;;;;;;;4.95;2.28;;;32.90;33.20;;;;;;7366043;24;20031;-72
2022/06/02 11:43:47;;;;;;;3.42;1.52;;;33.00;33.20;;;;;;7428270;23;20506;-72
2022/06/02 11:47:31;;;;;;;3.40;1.50;;;33.60;33.00;;;;;;7461691;23;20015;-72
2022/06/02 11:51:09;;;;;;;2.13;1.30;;;33.70;32.20;;;;;;7484160;23;20315;-71
2022/06/02 11:54:22;;;;;;;4.70;1.73;;;34.20;31.20;;;;;;7520916;23;20089;-72
2022/06/02 11:57:53;;;;;;;2.08;1.23;;;34.70;29.70;;;;;;7527095;23;20022;-72
2022/06/02 12:01:16;;;;;;;1.48;1.05;;;34.70;28.80;;;;;;7607161;23;20013;-73
2022/06/02 12:04:37;;;;;;;5.07;1.58;;;34.10;29.20;;;;;;7731889;23;20020;-72
2022/06/02 12:07:59;;;;;;;3.47;1.80;;;33.50;30.00;;;;;;7705722;23;20009;-71
2022/06/02 12:11:15;;;;;;;4.45;1.73;;;33.20;30.60;;;;;;7707173;23;20025;-72
2022/06/02 12:14:42;;;;;;;6.65;1.50;;;32.90;31.00;;;;;;7705380;23;20027;-72
2022/06/02 12:18:31;;;;;;;4.47;2.00;;;32.60;31.70;;;;;;7706123;23;20017;-71
2022/06/02 12:21:51;;;;;;;5.60;1.70;;;32.20;32.40;;;;;;7481535;23;20150;-72
2022/06/02 12:25:14;;;;;;;2.33;1.33;;;32.00;32.40;;;;;;7486253;23;20030;-72
2022/06/02 12:28:25;;;;;;;2.60;1.52;;;31.90;32.40;;;;;;7486972;23;20015;-72
2022/06/02 12:31:35;;;;;;;4.28;1.20;;;32.10;31.80;;;;;;7506867;23;20026;-71
2022/06/02 12:34:51;;;;;;;2.15;1.48;;;32.60;31.60;;;;;;7486587;23;20094;-71
2022/06/02 12:37:57;;;;;;;2.50;1.50;;;33.10;31.40;;;;;;7508471;23;20090;-73
2022/06/02 12:41:11;;;;;;;8.55;1.73;;;33.60;30.90;;;;;;7509924;23;20023;-72
2022/06/02 12:44:30;;;;;;;4.78;1.77;;;33.90;30.40;;;;;;7486823;23;20118;-72
2022/06/02 12:47:50;;;;;;;2.90;1.73;;;34.20;30.20;;;;;;7510219;23;20030;-73
2022/06/02 12:51:17;;;;;;;5.82;1.88;;;34.40;30.10;;;;;;7509885;23;20023;-73
2022/06/02 12:54:37;;;;;;;6.05;1.88;;;34.70;30.00;;;;;;7558285;23;20025;-72
2022/06/02 12:57:57;;;;;;;7.72;2.60;;;35.10;29.70;;;;;;7693533;23;20274;-71
2022/06/02 13:01:35;;;;;;;6.93;1.98;;;35.70;29.40;;;;;;7669299;23;20009;-73
2022/06/02 13:05:12;;;;;;;1.75;1.40;;;36.30;28.50;;;;;;7667382;23;20027;-71
2022/06/02 13:08:38;;;;;;;3.63;1.50;;;37.00;27.90;;;;;;7668649;23;20013;-72
2022/06/02 13:12:26;;;;;;;1.98;1.50;;;37.60;27.20;;;;;;7669658;23;20302;-72
2022/06/02 13:16:05;;;;;;;3.97;1.80;;;38.30;26.50;;;;;;7604758;23;20018;-71
2022/06/02 13:19:20;;;;;;;2.97;1.20;;;39.10;25.60;;;;;;7628242;23;20029;-72
2022/06/02 13:22:33;;;;;;;4.20;2.25;;;39.80;25.20;;;;;;7603902;23;20039;-71
2022/06/02 13:26:03;;;;;;;2.83;1.90;;;40.60;23.60;;;;;;7629601;23;20657;-72
2022/06/02 13:29:29;;;;;;;8.00;1.50;;;40.80;22.80;;;;;;7629511;23;20021;-71
2022/06/02 13:33:05;;;;;;;9.15;1.60;;;40.90;22.70;;;;;;7627949;23;20033;-71
2022/06/02 13:36:28;;;;;;;6.90;1.55;;;41.40;22.80;;;;;;7604436;23;20024;-72
2022/06/02 13:40:07;;;;;;;2.67;1.35;;;41.90;22.50;;;;;;7629544;23;20098;-72
2022/06/02 13:43:07;;;;;;;5.60;1.40;;;42.30;22.40;;;;;;7628162;23;20416;-72
2022/06/02 13:46:17;;;;;;;1.67;1.40;;;42.90;22.00;;;;;;7605106;23;20124;-72
2022/06/02 13:50:00;;;;;;;9.35;2.13;;;43.10;21.50;;;;;;7627638;23;20033;-73
2022/06/02 13:53:37;;;;;;;7.85;3.60;;;43.30;21.40;;;;;;7706688;22;20016;-72
2022/06/02 14:00:39;;;;;;;2.25;1.50;;;43.00;21.40;;;;;;7703830;22;20024;-71
2022/06/02 14:03:59;;;;;;;2.60;1.42;;;43.30;21.40;;;;;;7706060;22;20016;-72
2022/06/02 14:07:21;;;;;;;3.53;1.35;;;43.80;21.10;;;;;;7705655;22;20374;-73
2022/06/02 14:10:25;;;;;;;5.97;1.45;;;43.90;20.90;;;;;;7704162;22;20024;-72
2022/06/02 14:13:50;;;;;;;6.30;2.15;;;44.20;20.70;;;;;;7729284;22;20070;-72
2022/06/02 14:17:09;;;;;;;3.78;2.40;;;44.30;20.70;;;;;;7730319;22;20027;-72
2022/06/02 14:20:36;;;;;;;2.42;1.58;;;44.70;20.70;;;;;;7731458;22;20022;-71
2022/06/02 14:23:57;;;;;;;5.38;1.13;;;44.90;20.50;;;;;;7707192;22;20021;-72
2022/06/02 14:27:15;;;;;;;4.97;1.42;;;45.10;20.30;;;;;;7680030;22;20035;-72
2022/06/02 14:30:31;;;;;;;1.00;1.00;;;45.20;20.20;;;;;;7729885;22;20368;-72
2022/06/02 14:33:41;;;;;;;5.22;2.38;;;45.40;20.10;;;;;;7681808;22;20027;-72
2022/06/02 14:37:00;;;;;;;7.97;1.40;;;44.90;20.40;;;;;;7708091;22;20027;-71
2022/06/02 14:40:13;;;;;;;20.02;10.10;;;44.70;20.60;;;;;;7707171;22;20012;-72
2022/06/02 14:43:46;;;;;;;8.02;4.25;;;44.90;20.60;;;;;;7727615;22;20020;-72
2022/06/02 14:47:14;;;;;;;3.85;2.00;;;45.00;20.60;;;;;;7604702;23;20025;-72
2022/06/02 14:51:13;;;;;;;4.63;1.40;;;45.00;20.50;;;;;;7593484;23;20105;-72
2022/06/02 14:54:35;;;;;;;2.90;1.00;;;44.60;20.60;;;;;;7418344;24;20048;-72
2022/06/02 14:57:55;;;;;;;3.67;2.10;;;44.00;20.70;;;;;;7418671;24;20034;-72
2022/06/02 15:01:24;;;;;;;5.88;1.50;;;43.40;20.90;;;;;;7419399;24;20091;-71
2022/06/02 15:04:37;;;;;;;2.17;1.20;;;43.20;20.90;;;;;;7418987;24;20051;-71
2022/06/02 15:08:05;;;;;;;2.88;1.30;;;43.10;21.20;;;;;;7419236;24;20028;-72
2022/06/02 15:11:27;;;;;;;4.22;1.67;;;42.80;21.30;;;;;;7415325;23;20017;-72
2022/06/02 15:14:39;;;;;;;2.20;1.20;;;42.70;21.50;;;;;;7414399;24;20024;-72
2022/06/02 15:18:27;;;;;;;2.97;1.42;;;42.90;21.20;;;;;;7415471;24;20020;-72
2022/06/02 15:21:56;;;;;;;5.38;2.70;;;43.00;21.00;;;;;;7248264;24;20030;-72
2022/06/02 15:25:14;;;;;;;3.33;1.80;;;42.90;21.00;;;;;;7431048;23;20027;-73
2022/06/02 15:28:37;;;;;;;5.32;1.45;;;42.80;20.80;;;;;;7508058;23;20067;-72
2022/06/02 15:31:53;;;;;;;1.35;0.93;;;42.00;21.20;;;;;;7487370;23;20098;-72
2022/06/02 15:35:31;;;;;;;4.82;1.20;;;41.70;21.00;;;;;;7486000;23;20060;-72
2022/06/02 15:38:38;;;;;;;3.63;1.88;;;41.50;21.00;;;;;;7481005;23;20340;-71
2022/06/02 15:42:09;;;;;;;2.53;1.90;;;42.00;21.00;;;;;;7483317;23;20364;-72
2022/06/02 15:45:22;;;;;;;3.83;2.22;;;42.50;20.10;;;;;;7507230;23;20023;-72
2022/06/02 15:49:00;;;;;;;7.15;2.88;;;42.80;19.50;;;;;;7485879;23;20034;-72
2022/06/02 15:52:22;;;;;;;5.93;3.22;;;42.70;19.40;;;;;;7484809;23;20035;-72
2022/06/02 15:55:35;;;;;;;3.55;2.42;;;42.70;19.40;;;;;;7485489;23;20020;-72
2022/06/02 15:58:55;;;;;;;2.00;1.30;;;42.60;19.40;;;;;;7618557;23;20024;-72
2022/06/02 16:02:20;;;;;;;4.13;1.65;;;42.70;19.50;;;;;;7668572;23;20013;-72
2022/06/02 16:05:49;;;;;;;3.75;2.88;;;42.90;19.40;;;;;;7670309;23;20028;-72
2022/06/02 16:12:57;;;;;;;10.48;5.28;;;43.30;19.20;;;;;;7670996;23;20079;-72
2022/06/02 16:16:43;;;;;;;5.70;1.60;;;43.40;19.40;;;;;;7669498;23;20348;-72
2022/06/02 16:20:02;;;;;;;4.75;1.60;;;43.40;19.30;;;;;;7508501;23;20022;-72
2022/06/02 16:23:40;;;;;;;3.67;1.27;;;43.40;19.40;;;;;;7556092;23;20097;-72
2022/06/02 16:27:26;;;;;;;5.90;2.13;;;43.10;19.60;;;;;;7532409;23;20014;-72
2022/06/02 16:31:00;;;;;;;2.13;1.08;;;43.20;19.50;;;;;;7554311;23;20110;-72
2022/06/02 16:34:38;;;;;;;1.00;0.90;;;42.60;19.50;;;;;;7557179;23;20022;-72
2022/06/02 16:38:17;;;;;;;1.95;1.00;;;41.80;20.00;;;;;;7532195;23;20105;-71
2022/06/02 16:42:03;;;;;;;2.42;1.17;;;41.40;20.40;;;;;;7555415;23;20023;-73
2022/06/02 16:45:07;;;;;;;11.48;5.32;;;41.30;20.50;;;;;;7526992;23;20015;-72
2022/06/02 16:48:26;;;;;;;3.05;2.03;;;41.30;20.50;;;;;;7556947;23;20026;-74
2022/06/02 16:52:05;;;;;;;4.88;1.88;;;40.80;20.70;;;;;;7591934;23;20026;-72
2022/06/02 16:55:14;;;;;;;3.20;1.40;;;40.10;21.40;;;;;;7544312;23;20037;-72
2022/06/02 16:58:54;;;;;;;2.15;1.20;;;39.30;22.00;;;;;;7592457;23;20021;-72
2022/06/02 17:02:19;;;;;;;1.35;1.20;;;38.30;23.30;;;;;;7454178;23;20106;-71
2022/06/02 17:05:38;;;;;;;4.05;1.20;;;37.50;23.50;;;;;;7427255;23;20102;-71
2022/06/02 17:09:23;;;;;;;4.00;1.00;;;36.70;24.20;;;;;;7449636;23;20107;-72
2022/06/02 17:13:06;;;;;;;5.55;1.35;;;36.00;24.80;;;;;;7331962;24;20027;-72
2022/06/02 17:16:10;;;;;;;2.60;1.38;;;35.50;25.50;;;;;;7378647;24;20038;-71
2022/06/02 17:19:33;;;;;;;8.23;1.50;;;35.00;25.80;;;;;;7380423;24;20021;-72
2022/06/02 17:23:02;;;;;;;1.45;1.00;;;34.50;26.20;;;;;;7367108;24;20044;-72
2022/06/02 17:26:11;;;;;;;3.70;1.00;;;34.20;26.40;;;;;;7378219;24;20024;-72
2022/06/02 17:29:34;;;;;;;5.00;1.58;;;34.00;26.60;;;;;;7379209;24;20012;-72
2022/06/02 17:32:46;;;;;;;2.60;1.27;;;33.60;27.00;;;;;;7423350;23;20492;-71
2022/06/02 17:36:11;;;;;;;2.65;2.03;;;33.40;27.30;;;;;;7448803;23;20099;-72
2022/06/02 17:39:24;;;;;;;3.17;1.40;;;33.10;27.50;;;;;;7560139;23;20480;-71
2022/06/02 17:42:43;;;;;;;1.70;1.00;;;32.90;27.70;;;;;;7602107;23;20075;-72
2022/06/02 17:45:47;;;;;;;4.75;0.98;;;32.70;28.00;;;;;;7627320;23;20017;-71
2022/06/02 17:48:51;;;;;;;7.13;1.67;;;32.50;28.20;;;;;;7666848;23;20019;-74
2022/06/02 17:52:30;;;;;;;4.20;2.38;;;32.30;28.40;;;;;;7677082;23;20508;-72
2022/06/02 17:55:42;;;;;;;3.22;1.58;;;32.20;28.80;;;;;;7677678;23;20296;-73